Time;durP1;ratioP1;P1;durP2;ratioP2;P2;SDS_P1;SDS_P2;PMS_P1;PMS_P2;Temp;Humidity;BMP_temperature;BMP_pressure;BME280_temperature;BME280_humidity;BME280_pressure;Samples;Min_cycle;Max_cycle;Signal;HPM_P1;HPM_P2
2023/04/24 00:01:28;;;;;;;;;;;;;;;8.87;100.00;100011.28;4999047;28;19933;-43
2023/04/24 00:03:54;;;;;;;;;;;;;;;8.96;100.00;100016.59;5004422;28;20016;-44
2023/04/24 00:06:19;;;;;;;;;;;;;;;8.96;100.00;100006.31;5004367;28;20047;-43
2023/04/24 00:08:45;;;;;;;;;;;;;;;8.93;100.00;100006.28;4995181;28;19930;-43
2023/04/24 00:11:10;;;;;;;;;;;;;;;8.90;100.00;99997.66;5001388;28;19939;-43
2023/04/24 00:13:35;;;;;;;;;;;;;;;8.86;100.00;99996.72;4991206;28;19979;-42
2023/04/24 00:16:01;;;;;;;;;;;;;;;8.90;100.00;100011.31;4997586;28;20016;-42
2023/04/24 00:18:26;;;;;;;;;;;;;;;9.03;100.00;100004.75;5003327;28;19938;-43
2023/04/24 00:20:51;;;;;;;;;;;;;;;8.99;100.00;100016.66;5007922;28;19960;-43
2023/04/24 00:23:17;;;;;;;;;;;;;;;8.98;100.00;100014.03;5002436;28;19969;-43
2023/04/24 00:25:42;;;;;;;;;;;;;;;8.93;100.00;100024.22;4998864;28;19926;-43
2023/04/24 00:28:07;;;;;;;;;;;;;;;8.90;100.00;100010.47;5003990;28;19926;-43
2023/04/24 00:30:32;;;;;;;;;;;;;;;8.90;100.00;100013.88;5004784;28;19925;-44
2023/04/24 00:32:58;;;;;;;;;;;;;;;8.93;100.00;100010.53;5010103;28;19920;-43
2023/04/24 00:35:23;;;;;;;;;;;;;;;8.83;100.00;100012.91;4999069;28;19922;-43
2023/04/24 00:37:48;;;;;;;;;;;;;;;8.87;100.00;100021.53;5002795;28;20000;-43
2023/04/24 00:40:14;;;;;;;;;;;;;;;8.81;100.00;100016.28;5002528;28;20459;-44
2023/04/24 00:42:39;;;;;;;;;;;;;;;8.84;100.00;100024.88;4995735;28;19932;-49
2023/04/24 00:45:05;;;;;;;;;;;;;;;8.81;100.00;100024.81;4991254;28;19945;-49
2023/04/24 00:47:32;;;;;;;;;;;;;;;8.77;100.00;100025.56;5000153;28;19932;-48
2023/04/24 00:49:57;;;;;;;;;;;;;;;8.84;100.00;100031.69;5006020;28;19923;-47
2023/04/24 00:52:24;;;;;;;;;;;;;;;8.75;100.00;100027.25;4995085;28;19934;-46
2023/04/24 00:54:49;;;;;;;;;;;;;;;8.72;100.00;100024.59;5000304;28;20392;-51
2023/04/24 00:57:15;;;;;;;;;;;;;;;8.76;100.00;100034.09;5003639;28;20356;-46
2023/04/24 00:59:41;;;;;;;;;;;;;;;8.75;100.00;100026.41;5004017;28;19921;-48
2023/04/24 01:02:07;;;;;;;;;;;;;;;8.71;100.00;100032.28;5006461;28;20302;-48
2023/04/24 01:04:32;;;;;;;;;;;;;;;8.80;100.00;100030.78;4999475;28;20342;-48
2023/04/24 01:06:58;;;;;;;;;;;;;;;8.68;100.00;100032.22;4993791;28;20381;-48
2023/04/24 01:09:23;;;;;;;;;;;;;;;8.66;100.00;100021.91;5006097;28;20003;-50
2023/04/24 01:11:49;;;;;;;;;;;;;;;8.65;100.00;100022.75;4999396;28;19977;-49
2023/04/24 01:14:14;;;;;;;;;;;;;;;8.68;100.00;100021.97;5002511;28;19929;-48
2023/04/24 01:16:40;;;;;;;;;;;;;;;8.74;100.00;100017.84;4995781;28;20380;-49
2023/04/24 01:19:06;;;;;;;;;;;;;;;8.70;100.00;100025.41;5000586;28;20358;-46
2023/04/24 01:21:34;;;;;;;;;;;;;;;8.69;100.00;100023.69;4990533;28;19926;-49
2023/04/24 01:23:59;;;;;;;;;;;;;;;8.61;100.00;100023.50;5006441;28;19926;-50
2023/04/24 01:26:25;;;;;;;;;;;;;;;8.59;100.00;100020.91;4996928;28;19928;-47
2023/04/24 01:28:50;;;;;;;;;;;;;;;8.50;100.00;100014.72;5008356;28;20111;-47
2023/04/24 01:31:16;;;;;;;;;;;;;;;8.50;100.00;100020.72;4999394;28;19945;-47
2023/04/24 01:33:42;;;;;;;;;;;;;;;8.42;100.00;100021.34;5001596;28;19926;-48
2023/04/24 01:36:08;;;;;;;;;;;;;;;8.41;100.00;100023.06;4999412;28;20350;-48
2023/04/24 01:38:33;;;;;;;;;;;;;;;8.36;100.00;100028.91;4997996;28;20414;-48
2023/04/24 01:40:59;;;;;;;;;;;;;;;8.33;100.00;100022.84;5003822;28;20029;-48
2023/04/24 01:43:24;;;;;;;;;;;;;;;8.32;100.00;100026.25;5002703;28;20280;-48
2023/04/24 01:45:49;;;;;;;;;;;;;;;8.26;100.00;100026.09;4999630;28;20256;-49
2023/04/24 01:48:15;;;;;;;;;;;;;;;8.31;100.00;100026.19;5006269;28;19980;-47
2023/04/24 01:50:40;;;;;;;;;;;;;;;8.26;100.00;100023.53;5017990;28;20282;-48
2023/04/24 01:53:05;;;;;;;;;;;;;;;8.21;100.00;100020.00;4999715;28;19930;-49
2023/04/24 01:55:32;;;;;;;;;;;;;;;8.22;100.00;100013.19;4988053;28;19925;-47
2023/04/24 01:57:58;;;;;;;;;;;;;;;8.21;100.00;100007.19;5001407;28;19926;-47
2023/04/24 02:00:24;;;;;;;;;;;;;;;8.17;100.00;100022.44;5013248;28;19917;-44
2023/04/24 02:02:50;;;;;;;;;;;;;;;8.20;100.00;100020.84;5014945;28;19947;-46
2023/04/24 02:05:15;;;;;;;;;;;;;;;8.21;100.00;100029.38;5018594;28;20383;-45
2023/04/24 02:07:40;;;;;;;;;;;;;;;8.22;100.00;100028.53;5004701;28;20415;-44
2023/04/24 02:10:06;;;;;;;;;;;;;;;8.22;100.00;100028.53;5004669;28;20025;-44
2023/04/24 02:12:31;;;;;;;;;;;;;;;8.18;100.00;100031.84;5009941;28;20755;-45
2023/04/24 02:14:56;;;;;;;;;;;;;;;8.15;100.00;100034.34;4998323;28;19937;-47
2023/04/24 02:17:22;;;;;;;;;;;;;;;8.14;100.00;100030.06;5005880;28;20048;-44
2023/04/24 02:19:47;;;;;;;;;;;;;;;8.12;100.00;100034.25;5014229;28;20377;-46
2023/04/24 02:22:12;;;;;;;;;;;;;;;8.10;100.00;100028.25;5008113;28;20251;-44
2023/04/24 02:24:38;;;;;;;;;;;;;;;8.17;100.00;100036.09;5000525;28;19936;-44
2023/04/24 02:27:04;;;;;;;;;;;;;;;8.07;100.00;100034.16;4982616;28;20018;-46
2023/04/24 02:29:29;;;;;;;;;;;;;;;8.18;100.00;100035.28;4991489;28;19933;-45
2023/04/24 02:31:54;;;;;;;;;;;;;;;8.12;100.00;100034.25;4994056;28;19926;-46
2023/04/24 02:34:20;;;;;;;;;;;;;;;8.11;100.00;100035.09;4997991;28;19969;-49
2023/04/24 02:36:45;;;;;;;;;;;;;;;8.03;100.00;100037.47;5003843;28;19920;-48
2023/04/24 02:39:10;;;;;;;;;;;;;;;8.06;100.00;100030.72;4999811;28;19922;-45
2023/04/24 02:41:35;;;;;;;;;;;;;;;7.99;100.00;100040.78;4994224;28;19930;-47
2023/04/24 02:44:01;;;;;;;;;;;;;;;8.01;100.00;100032.31;4995067;28;20378;-45
2023/04/24 02:46:26;;;;;;;;;;;;;;;8.06;100.00;100033.28;5002973;28;21347;-47
2023/04/24 02:48:51;;;;;;;;;;;;;;;7.98;100.00;100031.38;5001909;28;19922;-46
2023/04/24 02:51:17;;;;;;;;;;;;;;;7.98;100.00;100029.66;4989449;28;19930;-46
2023/04/24 02:53:42;;;;;;;;;;;;;;;8.10;100.00;100028.25;5001151;28;20499;-48
2023/04/24 02:56:07;;;;;;;;;;;;;;;7.93;100.00;100028.69;4999773;28;19953;-44
2023/04/24 02:58:32;;;;;;;;;;;;;;;7.94;100.00;100022.72;4994916;28;19928;-45
2023/04/24 03:00:58;;;;;;;;;;;;;;;7.97;100.00;100017.69;4996647;28;19965;-46
2023/04/24 03:03:24;;;;;;;;;;;;;;;7.94;100.00;100020.16;4989365;28;19921;-47
2023/04/24 03:05:50;;;;;;;;;;;;;;;7.90;100.00;100026.06;4990020;28;19960;-45
2023/04/24 03:08:15;;;;;;;;;;;;;;;7.92;100.00;100026.09;4991171;28;19960;-46
2023/04/24 03:10:43;;;;;;;;;;;;;;;7.86;100.00;100025.94;4996230;28;19977;-45
2023/04/24 03:13:08;;;;;;;;;;;;;;;7.90;100.00;100036.31;4995220;28;19928;-45
2023/04/24 03:15:34;;;;;;;;;;;;;;;7.88;100.00;100012.34;5005731;28;20308;-45
2023/04/24 03:18:00;;;;;;;;;;;;;;;7.92;100.00;100024.41;5007891;28;19925;-46
2023/04/24 03:20:26;;;;;;;;;;;;;;;7.89;100.00;100026.91;5003151;28;20372;-43
2023/04/24 03:22:51;;;;;;;;;;;;;;;7.89;100.00;100026.91;4988619;28;19922;-45
2023/04/24 03:25:16;;;;;;;;;;;;;;;7.88;100.00;100030.25;4989633;28;19926;-45
2023/04/24 03:27:41;;;;;;;;;;;;;;;7.91;100.00;100025.22;4994897;28;20025;-46
2023/04/24 03:30:07;;;;;;;;;;;;;;;7.97;100.00;100019.41;4993994;28;19929;-44
2023/04/24 03:32:32;;;;;;;;;;;;;;;7.89;100.00;100026.91;4995217;28;19922;-45
2023/04/24 03:34:58;;;;;;;;;;;;;;;7.88;100.00;100021.72;4996637;28;19925;-44
2023/04/24 03:37:23;;;;;;;;;;;;;;;7.88;100.00;100007.22;4983410;28;19922;-46
2023/04/24 03:39:48;;;;;;;;;;;;;;;7.87;100.00;100022.53;5006343;28;19932;-45
2023/04/24 03:42:13;;;;;;;;;;;;;;;7.90;100.00;100025.19;4991199;28;20451;-46
2023/04/24 03:44:39;;;;;;;;;;;;;;;7.94;100.00;100015.06;4991503;28;19922;-46
2023/04/24 03:47:04;;;;;;;;;;;;;;;7.96;100.00;100010.84;4998912;28;19922;-50
2023/04/24 03:49:29;;;;;;;;;;;;;;;7.89;100.00;100008.97;4999143;28;19925;-48
2023/04/24 03:51:55;;;;;;;;;;;;;;;7.80;100.00;100027.50;4995331;28;19930;-50
2023/04/24 03:54:20;;;;;;;;;;;;;;;7.83;100.00;100013.94;5006503;28;19981;-44
2023/04/24 03:56:45;;;;;;;;;;;;;;;7.85;100.00;100008.84;5004854;28;19945;-45
2023/04/24 03:59:11;;;;;;;;;;;;;;;7.82;100.00;100017.31;5012375;28;19926;-49
2023/04/24 04:01:37;;;;;;;;;;;;;;;7.85;100.00;100007.16;5009283;28;19918;-48
2023/04/24 04:04:05;;;;;;;;;;;;;;;7.82;100.00;100014.75;5004976;28;20070;-49
2023/04/24 04:06:33;;;;;;;;;;;;;;;7.89;100.00;100006.41;5002924;28;19935;-49
2023/04/24 04:08:58;;;;;;;;;;;;;;;7.86;100.00;100015.69;5003880;28;20320;-49
2023/04/24 04:11:24;;;;;;;;;;;;;;;7.88;100.00;100014.91;4994080;28;20561;-47
2023/04/24 04:13:49;;;;;;;;;;;;;;;7.89;100.00;100006.41;5006656;28;19922;-51
2023/04/24 04:16:17;;;;;;;;;;;;;;;7.83;100.00;100011.38;5000710;28;19922;-48
2023/04/24 04:18:43;;;;;;;;;;;;;;;7.88;100.00;100008.91;4994943;28;19928;-47
2023/04/24 04:21:08;;;;;;;;;;;;;;;7.88;100.00;100019.16;5006829;28;19916;-47
2023/04/24 04:23:34;;;;;;;;;;;;;;;7.83;100.00;100018.19;4999658;28;19925;-50
2023/04/24 04:25:59;;;;;;;;;;;;;;;7.80;100.00;100017.28;4994665;28;19932;-51
2023/04/24 04:28:25;;;;;;;;;;;;;;;7.84;100.00;100023.34;4987117;28;20021;-48
2023/04/24 04:30:53;;;;;;;;;;;;;;;7.77;100.00;100014.66;4990095;28;19928;-50
2023/04/24 04:33:19;;;;;;;;;;;;;;;7.83;100.00;100019.06;4993934;28;19924;-47
2023/04/24 04:35:48;;;;;;;;;;;;;;;7.83;100.00;100021.63;4990949;28;20339;-48
2023/04/24 04:38:14;;;;;;;;;;;;;;;7.83;100.00;100019.06;4987374;28;19932;-47
2023/04/24 04:40:40;;;;;;;;;;;;;;;7.87;100.00;100025.09;4997817;28;19925;-48
2023/04/24 04:43:06;;;;;;;;;;;;;;;7.77;100.00;100024.88;5069150;28;19919;-51
2023/04/24 04:45:32;;;;;;;;;;;;;;;7.73;100.00;100028.19;4994029;28;20307;-47
2023/04/24 04:47:57;;;;;;;;;;;;;;;7.74;100.00;100031.59;4984685;28;20336;-49
2023/04/24 04:50:23;;;;;;;;;;;;;;;7.79;100.00;100038.56;4987739;28;19969;-51
2023/04/24 04:52:48;;;;;;;;;;;;;;;7.73;100.00;100035.00;5019118;28;19983;-49
2023/04/24 04:55:13;;;;;;;;;;;;;;;7.71;100.00;100042.63;4990213;28;20000;-48
2023/04/24 04:57:39;;;;;;;;;;;;;;;7.74;100.00;100044.41;4990872;28;20357;-49
2023/04/24 05:00:04;;;;;;;;;;;;;;;7.75;100.00;100051.25;4995579;28;19971;-50
2023/04/24 05:02:30;;;;;;;;;;;;;;;7.73;100.00;100047.78;5020838;28;19964;-50
2023/04/24 05:04:55;;;;;;;;;;;;;;;7.72;100.00;100053.75;5002706;28;19927;-46
2023/04/24 05:07:20;;;;;;;;;;;;;;;7.74;100.00;100055.50;5019555;28;19993;-49
2023/04/24 05:09:46;;;;;;;;;;;;;;;7.76;100.00;100055.53;5004832;28;19922;-50
2023/04/24 05:12:11;;;;;;;;;;;;;;;7.75;100.00;100049.56;4996254;28;19933;-47
2023/04/24 05:14:36;;;;;;;;;;;;;;;7.73;100.00;100053.78;5005112;28;19926;-49
2023/04/24 05:17:02;;;;;;;;;;;;;;;7.72;100.00;100058.84;4986862;28;19929;-48
2023/04/24 05:19:27;;;;;;;;;;;;;;;7.71;100.00;100052.88;5006518;28;19929;-47
2023/04/24 05:21:53;;;;;;;;;;;;;;;7.71;100.00;100054.56;4994556;28;20008;-51
2023/04/24 05:24:18;;;;;;;;;;;;;;;7.78;100.00;100066.69;4995532;28;19913;-50
2023/04/24 05:26:44;;;;;;;;;;;;;;;7.71;100.00;100069.94;5008969;28;19939;-50
2023/04/24 05:29:09;;;;;;;;;;;;;;;7.70;100.00;100069.03;4993170;28;19925;-49
2023/04/24 05:31:34;;;;;;;;;;;;;;;7.72;100.00;100071.66;5000601;28;20011;-51
2023/04/24 05:34:00;;;;;;;;;;;;;;;7.68;100.00;100074.94;4994736;28;19930;-52
2023/04/24 05:36:26;;;;;;;;;;;;;;;7.68;100.00;100070.69;5003476;28;20020;-52
2023/04/24 05:38:52;;;;;;;;;;;;;;;7.66;100.00;100063.81;5001091;28;20057;-47
2023/04/24 05:41:17;;;;;;;;;;;;;;;7.65;100.00;100070.63;4991300;28;20384;-52
2023/04/24 05:43:42;;;;;;;;;;;;;;;7.68;100.00;100082.63;4989198;28;20414;-48
2023/04/24 05:46:07;;;;;;;;;;;;;;;7.65;100.00;100095.34;5008679;28;19922;-50
2023/04/24 05:48:33;;;;;;;;;;;;;;;7.60;100.00;100102.03;4994501;28;19929;-53
2023/04/24 05:50:58;;;;;;;;;;;;;;;7.59;100.00;100113.09;4988912;28;19925;-54
2023/04/24 05:53:23;;;;;;;;;;;;;;;7.57;100.00;100107.91;4990663;28;20281;-54
2023/04/24 05:55:48;;;;;;;;;;;;;;;7.64;100.00;100122.59;4993790;28;19926;-54
2023/04/24 05:58:14;;;;;;;;;;;;;;;7.59;100.00;100131.00;4996335;28;19921;-51
2023/04/24 06:00:42;;;;;;;;;;;;;;;7.62;100.00;100125.94;4993474;28;19926;-53
2023/04/24 06:03:08;;;;;;;;;;;;;;;7.62;100.00;100136.19;4993058;28;19994;-53
2023/04/24 06:05:33;;;;;;;;;;;;;;;7.61;100.00;100137.00;4992398;28;19917;-50
2023/04/24 06:07:58;;;;;;;;;;;;;;;7.63;100.00;100140.47;5008192;28;19964;-49
2023/04/24 06:10:23;;;;;;;;;;;;;;;7.61;100.00;100140.44;4998596;28;19961;-53
2023/04/24 06:12:49;;;;;;;;;;;;;;;7.63;100.00;100137.91;4990533;28;20534;-55
2023/04/24 06:15:14;;;;;;;;;;;;;;;7.66;100.00;100148.25;4996574;28;20261;-53
2023/04/24 06:17:39;;;;;;;;;;;;;;;7.67;100.00;100145.72;4995178;28;19918;-53
2023/04/24 06:20:06;;;;;;;;;;;;;;;7.66;100.00;100154.22;4992268;28;19971;-53
2023/04/24 06:22:32;;;;;;;;;;;;;;;7.68;100.00;100159.38;5006937;28;19918;-54
2023/04/24 06:24:57;;;;;;;;;;;;;;;7.69;100.00;100168.78;4987564;28;19929;-53
2023/04/24 06:27:22;;;;;;;;;;;;;;;7.69;100.00;100174.78;4988673;28;19930;-52
2023/04/24 06:29:54;;;;;;;;;;;;;;;7.72;100.00;100184.25;5026286;28;20298;-52
2023/04/24 06:32:19;;;;;;;;;;;;;;;7.73;100.00;100185.97;5003408;28;19944;-53
2023/04/24 06:34:45;;;;;;;;;;;;;;;7.73;100.00;100193.66;4996428;28;20025;-51
2023/04/24 06:37:10;;;;;;;;;;;;;;;7.72;100.00;100199.59;5078718;28;19922;-49
2023/04/24 06:39:35;;;;;;;;;;;;;;;7.72;100.00;100204.72;5000474;28;19975;-51
2023/04/24 06:42:00;;;;;;;;;;;;;;;7.73;100.00;100202.19;5001182;28;19926;-52
2023/04/24 06:44:26;;;;;;;;;;;;;;;7.74;100.00;100211.59;4993739;28;19974;-50
2023/04/24 06:46:51;;;;;;;;;;;;;;;7.70;100.00;100217.44;5005295;28;19925;-52
2023/04/24 06:49:17;;;;;;;;;;;;;;;7.83;100.00;100217.84;5003976;28;19916;-51
2023/04/24 06:51:42;;;;;;;;;;;;;;;7.70;100.00;100237.06;4992297;28;19978;-48
2023/04/24 06:54:07;;;;;;;;;;;;;;;7.68;100.00;100229.34;5010797;28;19944;-53
2023/04/24 06:56:34;;;;;;;;;;;;;;;7.84;100.00;100235.78;4990514;28;19928;-50
2023/04/24 06:58:59;;;;;;;;;;;;;;;7.82;100.00;100252.78;4989690;28;20012;-50
2023/04/24 07:01:24;;;;;;;;;;;;;;;7.96;100.00;100260.88;4984114;28;20933;-49
2023/04/24 07:03:50;;;;;;;;;;;;;;;7.82;100.00;100262.16;4989434;28;19930;-51
2023/04/24 07:06:18;;;;;;;;;;;;;;;7.86;100.00;100269.97;4991714;28;19926;-49
2023/04/24 07:08:43;;;;;;;;;;;;;;;7.74;100.00;100279.84;4993027;28;20025;-48
2023/04/24 07:11:08;;;;;;;;;;;;;;;7.72;100.00;100292.59;4994326;28;20029;-48
2023/04/24 07:13:35;;;;;;;;;;;;;;;7.74;100.00;100295.19;4989622;28;19930;-49
2023/04/24 07:16:00;;;;;;;;;;;;;;;7.77;100.00;100306.41;4992145;28;19971;-49
2023/04/24 07:18:25;;;;;;;;;;;;;;;7.72;100.00;100323.31;4990986;28;20660;-48
2023/04/24 07:20:51;;;;;;;;;;;;;;;7.46;100.00;100325.06;4989750;28;19917;-48
2023/04/24 07:23:17;;;;;;;;;;;;;;;7.45;100.00;100336.09;4986675;28;19987;-49
2023/04/24 07:25:42;;;;;;;;;;;;;;;7.48;100.00;100343.88;4996782;28;20376;-48
2023/04/24 07:28:08;;;;;;;;;;;;;;;7.46;100.00;100359.97;5006911;28;19933;-49
2023/04/24 07:30:33;;;;;;;;;;;;;;;7.48;100.00;100354.09;4984438;28;20001;-52
2023/04/24 07:32:59;;;;;;;;;;;;;;;7.46;100.00;100366.00;4975048;28;19998;-56
2023/04/24 07:35:25;;;;;;;;;;;;;;;7.36;100.00;100375.88;4988796;28;19929;-51
2023/04/24 07:37:51;;;;;;;;;;;;;;;7.46;100.00;100375.31;5007652;28;19921;-51
2023/04/24 07:40:16;;;;;;;;;;;;;;;7.39;100.00;100381.94;4991033;28;19918;-53
2023/04/24 07:42:41;;;;;;;;;;;;;;;7.39;100.00;100398.97;4984366;28;19934;-49
2023/04/24 07:45:07;;;;;;;;;;;;;;;7.32;100.00;100397.91;4996022;28;19922;-49
2023/04/24 07:47:33;;;;;;;;;;;;;;;7.37;100.00;100416.84;4994556;28;20513;-50
2023/04/24 07:49:59;;;;;;;;;;;;;;;7.53;100.00;100420.78;4992670;28;19918;-49
2023/04/24 07:52:24;;;;;;;;;;;;;;;7.35;100.00;100435.50;4986023;28;19922;-50
2023/04/24 07:54:50;;;;;;;;;;;;;;;7.33;100.00;100424.34;4991617;28;19926;-48
2023/04/24 07:57:15;;;;;;;;;;;;;;;7.42;100.00;100443.44;5001216;28;20518;-48
2023/04/24 07:59:40;;;;;;;;;;;;;;;7.33;100.00;100443.09;4990492;28;20004;-48
2023/04/24 08:02:06;;;;;;;;;;;;;;;7.42;100.00;100448.56;4999528;28;19929;-48
2023/04/24 08:04:31;;;;;;;;;;;;;;;7.31;100.00;100455.00;4996360;28;19925;-48
2023/04/24 08:06:56;;;;;;;;;;;;;;;7.30;100.00;100458.38;4987001;28;20030;-49
2023/04/24 08:09:22;;;;;;;;;;;;;;;7.32;100.00;100459.28;5003258;28;20438;-48
2023/04/24 08:11:47;;;;;;;;;;;;;;;7.28;100.00;100470.25;5000167;28;19932;-48
2023/04/24 08:14:13;;;;;;;;;;;;;;;7.26;100.00;100474.41;5002805;28;19980;-50
2023/04/24 08:16:38;;;;;;;;;;;;;;;7.33;100.00;100475.50;4993192;28;19926;-48
2023/04/24 08:19:03;;;;;;;;;;;;;;;7.33;100.00;100486.59;4992510;28;19990;-49
2023/04/24 08:21:28;;;;;;;;;;;;;;;7.45;100.00;100491.25;4987499;28;20296;-48
2023/04/24 08:23:54;;;;;;;;;;;;;;;7.32;100.00;100495.09;4994181;28;19922;-52
2023/04/24 08:26:19;;;;;;;;;;;;;;;7.33;100.00;100509.59;4992308;28;19928;-43
2023/04/24 08:28:45;;;;;;;;;;;;;;;7.36;100.00;100519.97;4994710;28;19919;-43
2023/04/24 08:31:10;;;;;;;;;;;;;;;7.32;100.00;100513.00;4989227;28;19926;-43
2023/04/24 08:33:35;;;;;;;;;;;;;;;7.36;100.00;100526.78;4998492;28;19924;-51
2023/04/24 08:36:04;;;;;;;;;;;;;;;7.34;100.00;100525.81;4976598;28;19938;-50
2023/04/24 08:38:30;;;;;;;;;;;;;;;7.27;100.00;100547.75;4993425;28;19920;-48
2023/04/24 08:40:56;;;;;;;;;;;;;;;7.29;100.00;100541.03;4990089;28;19983;-49
2023/04/24 08:43:28;;;;;;;;;;;;;;;7.23;100.00;100553.59;4999615;28;19922;-50
2023/04/24 08:45:56;;;;;;;;;;;;;;;7.26;100.00;100544.34;5002934;28;19924;-43
2023/04/24 08:48:22;;;;;;;;;;;;;;;7.29;100.00;100558.94;4982405;28;19971;-42
2023/04/24 08:50:48;;;;;;;;;;;;;;;7.30;100.00;100560.66;5004606;28;19926;-43
2023/04/24 08:53:14;;;;;;;;;;;;;;;7.36;100.00;100562.59;4983214;28;20227;-43
2023/04/24 08:55:41;;;;;;;;;;;;;;;7.41;100.00;100564.50;4996726;28;19929;-49
2023/04/24 08:58:06;;;;;;;;;;;;;;;7.38;100.00;100566.91;4994349;28;20360;-47
2023/04/24 09:00:31;;;;;;;;;;;;;;;7.47;100.00;100572.38;4990800;28;19971;-50
2023/04/24 09:02:57;;;;;;;;;;;;;;;7.47;100.00;100577.50;5009873;28;19929;-47
2023/04/24 09:05:23;;;;;;;;;;;;;;;7.49;100.00;100575.84;4994813;28;19930;-49
2023/04/24 09:07:56;;;;;;;;;;;;;;;7.44;100.00;100582.50;4984196;28;19933;-46
2023/04/24 09:10:22;;;;;;;;;;;;;;;7.45;100.00;100591.03;4994433;28;19963;-49
2023/04/24 09:12:47;;;;;;;;;;;;;;;7.54;100.00;100593.94;4983709;28;20290;-48
2023/04/24 09:15:12;;;;;;;;;;;;;;;7.48;100.00;100596.28;4986534;28;20260;-48
2023/04/24 09:17:38;;;;;;;;;;;;;;;7.53;100.00;100592.19;5018256;28;19930;-49
2023/04/24 09:20:04;;;;;;;;;;;;;;;7.58;100.00;100594.91;4998450;28;19917;-49
2023/04/24 09:22:30;;;;;;;;;;;;;;;7.44;100.00;100610.63;4987214;28;20285;-47
2023/04/24 09:25:05;;;;;;;;;;;;;;;7.56;100.00;100601.66;4990225;28;20486;-50
2023/04/24 09:27:31;;;;;;;;;;;;;;;7.52;100.00;100609.25;4990028;28;19914;-48
2023/04/24 09:29:57;;;;;;;;;;;;;;;7.64;100.00;100616.47;4989807;28;20338;-47
2023/04/24 09:32:24;;;;;;;;;;;;;;;7.76;100.00;100622.00;4990347;28;19921;-49
2023/04/24 09:35:04;;;;;;;;;;;;;;;7.95;100.00;100636.34;4989216;28;19932;-48
2023/04/24 09:37:29;;;;;;;;;;;;;;;7.93;100.00;100634.53;4986828;28;19921;-50
2023/04/24 09:40:11;;;;;;;;;;;;;;;7.88;100.00;100641.19;5002782;28;19918;-48
2023/04/24 09:42:37;;;;;;;;;;;;;;;7.77;100.00;100643.41;4976768;28;20270;-49
2023/04/24 09:45:02;;;;;;;;;;;;;;;7.64;100.00;100651.41;4990683;28;19921;-50
2023/04/24 09:47:35;;;;;;;;;;;;;;;7.73;100.00;100662.00;4999695;28;19918;-50
2023/04/24 09:50:08;;;;;;;;;;;;;;;7.35;100.00;100663.16;4994630;28;19918;-50
2023/04/24 09:52:33;;;;;;;;;;;;;;;7.32;100.00;100673.25;4998376;28;19926;-49
2023/04/24 09:54:59;;;;;;;;;;;;;;;7.42;100.00;100667.69;4992152;28;19952;-48
2023/04/24 09:57:24;;;;;;;;;;;;;;;7.37;100.00;100687.97;4992738;28;19926;-50
2023/04/24 09:59:52;;;;;;;;;;;;;;;7.41;100.00;100678.75;5011962;28;19922;-51
2023/04/24 10:02:19;;;;;;;;;;;;;;;7.27;100.00;100688.41;4992213;28;20330;-47
2023/04/24 10:04:54;;;;;;;;;;;;;;;7.33;100.00;100700.56;5010413;28;19929;-47
2023/04/24 10:07:19;;;;;;;;;;;;;;;7.34;100.00;100692.97;4999992;28;19964;-50
2023/04/24 10:09:44;;;;;;;;;;;;;;;7.45;100.00;100701.91;4999570;28;19965;-47
2023/04/24 10:12:10;;;;;;;;;;;;;;;7.39;100.00;100699.13;5012678;28;19931;-47
2023/04/24 10:14:36;;;;;;;;;;;;;;;7.43;100.00;100701.00;5007727;28;19926;-46
2023/04/24 10:17:02;;;;;;;;;;;;;;;7.55;100.00;100702.28;4984008;28;19953;-46
2023/04/24 10:19:29;;;;;;;;;;;;;;;7.67;100.00;100698.47;4996949;28;19925;-48
2023/04/24 10:21:56;;;;;;;;;;;;;;;7.64;100.00;100703.47;5008141;28;19967;-47
2023/04/24 10:24:21;;;;;;;;;;;;;;;7.56;100.00;100696.34;5006529;28;19921;-49
2023/04/24 10:26:48;;;;;;;;;;;;;;;7.64;100.00;100706.03;5003204;28;19926;-46
2023/04/24 10:29:15;;;;;;;;;;;;;;;7.61;100.00;100707.63;5000523;28;20229;-46
2023/04/24 10:31:41;;;;;;;;;;;;;;;7.55;100.00;100722.75;4998922;28;19934;-46
2023/04/24 10:34:08;;;;;;;;;;;;;;;7.53;100.00;100723.56;5003354;28;21740;-47
2023/04/24 10:36:34;;;;;;;;;;;;;;;7.46;100.00;100728.38;4994359;28;20408;-46
2023/04/24 10:39:00;;;;;;;;;;;;;;;7.43;100.00;100718.91;4995510;28;19922;-46
2023/04/24 10:41:26;;;;;;;;;;;;;;;7.46;100.00;100726.69;4990675;28;19922;-47
2023/04/24 10:44:07;;;;;;;;;;;;;;;7.37;100.00;100740.81;4990712;28;19951;-47
2023/04/24 10:46:32;;;;;;;;;;;;;;;7.41;100.00;100740.13;5002753;28;19922;-46
2023/04/24 10:48:58;;;;;;;;;;;;;;;7.40;100.00;100751.16;5008540;28;19923;-47
2023/04/24 10:51:24;;;;;;;;;;;;;;;7.70;100.00;100751.44;5006044;28;20020;-48
2023/04/24 10:53:50;;;;;;;;;;;;;;;7.94;100.00;100748.94;4993311;28;19972;-49
2023/04/24 10:56:16;;;;;;;;;;;;;;;7.92;100.00;100754.00;5006257;28;19928;-46
2023/04/24 10:58:46;;;;;;;;;;;;;;;7.96;100.00;100755.00;5009829;28;19924;-47
2023/04/24 11:01:23;;;;;;;;;;;;;;;7.99;100.00;100758.53;4996604;28;19917;-46
2023/04/24 11:03:56;;;;;;;;;;;;;;;8.03;100.00;100765.53;5014667;28;19977;-46
2023/04/24 11:06:35;;;;;;;;;;;;;;;8.09;100.00;100764.00;4981463;28;19926;-46
2023/04/24 11:09:07;;;;;;;;;;;;;;;8.05;100.00;100768.13;5007735;28;19992;-46
2023/04/24 11:11:33;;;;;;;;;;;;;;;8.01;100.00;100762.03;5001507;28;19929;-52
2023/04/24 11:13:59;;;;;;;;;;;;;;;8.02;100.00;100758.66;5077347;28;19928;-47
2023/04/24 11:16:57;;;;;;;;;;;;;;;8.18;100.00;100766.88;5010166;28;19916;-49
2023/04/24 11:19:23;;;;;;;;;;;;;;;8.39;100.00;100765.13;5021115;28;20459;-46
2023/04/24 11:22:01;;;;;;;;;;;;;;;8.55;100.00;100769.97;5015067;28;20386;-47
2023/04/24 11:24:31;;;;;;;;;;;;;;;8.74;100.00;100763.78;5002115;28;19924;-47
2023/04/24 11:26:59;;;;;;;;;;;;;;;8.94;100.00;100772.13;4991799;28;20371;-47
2023/04/24 11:29:40;;;;;;;;;;;;;;;9.09;99.32;100780.31;5012341;28;19924;-46
2023/04/24 11:32:15;;;;;;;;;;;;;;;9.08;98.57;100777.72;5005445;28;20011;-47
2023/04/24 11:34:41;;;;;;;;;;;;;;;9.14;100.00;100783.03;5007737;28;19923;-47
2023/04/24 11:37:06;;;;;;;;;;;;;;;9.21;95.22;100784.09;5002884;28;19933;-50
2023/04/24 11:39:36;;;;;;;;;;;;;;;9.12;95.87;100795.81;5004058;28;19953;-47
2023/04/24 11:42:06;;;;;;;;;;;;;;;8.98;96.69;100803.88;4999510;28;20047;-48
2023/04/24 11:44:33;;;;;;;;;;;;;;;8.93;98.74;100806.31;5001305;28;20320;-49
2023/04/24 11:46:58;;;;;;;;;;;;;;;8.88;98.54;100802.72;5007607;28;19934;-50
2023/04/24 11:49:24;;;;;;;;;;;;;;;8.94;97.20;100808.03;5007361;28;19930;-48
2023/04/24 11:51:49;;;;;;;;;;;;;;;8.95;99.10;100812.34;4999824;28;19924;-47
2023/04/24 11:54:16;;;;;;;;;;;;;;;8.97;98.65;100813.25;5019257;28;20462;-46
2023/04/24 11:56:46;;;;;;;;;;;;;;;9.01;98.48;100801.41;4998363;28;19928;-45
2023/04/24 11:59:11;;;;;;;;;;;;;;;9.07;96.19;100814.44;5016686;28;19925;-49
2023/04/24 12:01:46;;;;;;;;;;;;;;;9.07;99.55;100824.72;5002515;28;19933;-46
2023/04/24 12:04:11;;;;;;;;;;;;;;;9.13;99.05;100823.22;5013416;28;20001;-45
2023/04/24 12:06:37;;;;;;;;;;;;;;;9.23;99.25;100824.41;5008050;28;20464;-46
2023/04/24 12:09:02;;;;;;;;;;;;;;;9.36;97.91;100833.38;5000659;28;19922;-48
2023/04/24 12:11:27;;;;;;;;;;;;;;;9.52;99.20;100830.44;4989478;28;20446;-46
2023/04/24 12:13:53;;;;;;;;;;;;;;;9.70;97.85;100824.16;4989829;28;19930;-46
2023/04/24 12:16:19;;;;;;;;;;;;;;;9.84;96.69;100831.47;4988913;28;20020;-47
2023/04/24 12:18:45;;;;;;;;;;;;;;;9.94;95.51;100835.16;4987710;28;20384;-46
2023/04/24 12:21:17;;;;;;;;;;;;;;;9.88;92.71;100834.97;5009011;28;19982;-46
2023/04/24 12:23:43;;;;;;;;;;;;;;;9.68;96.36;100832.69;4992363;28;19924;-46
2023/04/24 12:26:08;;;;;;;;;;;;;;;9.61;93.33;100837.59;4985918;28;20417;-47
2023/04/24 12:28:37;;;;;;;;;;;;;;;9.60;95.83;100841.84;4988665;28;20412;-46
2023/04/24 12:31:02;;;;;;;;;;;;;;;9.62;95.02;100850.47;4985881;28;19918;-48
2023/04/24 12:33:32;;;;;;;;;;;;;;;9.53;95.75;100852.75;4987884;28;20458;-48